KOLV/OLV METAR and TAF weather

Enter ICAO airport designator
Station Type Date Time Source
KOLV METAR 2019/10/21 02:15 UTC NOAA

KOLV 210215Z AUTO 14007KT 10SM OVC023 20/17 A2983 RMK A01


Station Type Date Time Source
KOLV Decoded METAR 2019/10/21 02:15 UTC NOAA

Olive Branch, Olive Branch Airport, MS, United States (KOLV) 34-58-44N 089-47-13W
Oct 20, 2019 - 10:15 PM EDT / 2019.10.21 0215 UTC
Wind: from the SE (140 degrees) at 8 MPH (7 KT):0
Visibility: 10 mile(s):0
Sky conditions: overcast
Temperature: 68 F (20 C)
Dew Point: 62 F (17 C)
Relative Humidity: 82%
Pressure (altimeter): 29.83 in. Hg (1010 hPa)
ob: KOLV 210215Z AUTO 14007KT 10SM OVC023 20/17 A2983 RMK A01
cycle: 2

Station Type Date Time Source
KOLV TAF UTC NOAA

Error!

Example: see airport list